createdAt,value
2022-09-15T00:00:30.302Z,1.52
2022-09-15T00:02:57.145Z,1.73
2022-09-15T00:05:24.125Z,1.67
2022-09-15T00:07:50.995Z,2.03
2022-09-15T00:10:18.036Z,1.83
2022-09-15T00:12:44.838Z,1.80
2022-09-15T00:15:14.787Z,1.55
2022-09-15T00:17:43.236Z,1.70
2022-09-15T00:20:10.993Z,1.65
2022-09-15T00:22:38.272Z,1.63
2022-09-15T00:25:06.043Z,1.77
2022-09-15T00:27:33.822Z,1.77
2022-09-15T00:30:00.827Z,1.95
2022-09-15T00:32:28.022Z,2.10
2022-09-15T00:34:57.588Z,2.20
2022-09-15T00:39:51.171Z,2.13
2022-09-15T00:42:20.597Z,1.92
2022-09-15T00:44:52.828Z,1.80
2022-09-15T00:47:23.818Z,2.00
2022-09-15T00:49:59.039Z,2.40
2022-09-15T00:52:37.629Z,2.10
2022-09-15T00:55:22.408Z,2.70
2022-09-15T00:58:03.715Z,2.00
2022-09-15T01:00:30.471Z,2.08
2022-09-15T01:02:57.833Z,1.90
2022-09-15T01:05:30.213Z,2.05
2022-09-15T01:08:11.791Z,2.25
2022-09-15T01:10:40.445Z,2.40
2022-09-15T01:13:13.110Z,2.20
2022-09-15T01:16:01.817Z,2.20
2022-09-15T01:18:38.550Z,2.23
2022-09-15T01:21:25.253Z,2.10
2022-09-15T01:24:07.236Z,2.20
2022-09-15T01:27:37.595Z,2.47
2022-09-15T01:30:15.502Z,2.60
2022-09-15T01:33:06.704Z,2.10
2022-09-15T01:35:55.171Z,2.30
2022-09-15T01:38:37.836Z,2.30
2022-09-15T01:41:25.499Z,2.35
2022-09-15T01:44:05.375Z,2.45
2022-09-15T01:46:35.779Z,2.08
2022-09-15T01:49:04.827Z,2.30
2022-09-15T01:51:33.892Z,2.35
2022-09-15T01:54:03.932Z,2.20
2022-09-15T01:56:30.822Z,2.10
2022-09-15T01:58:58.079Z,2.53
2022-09-15T02:01:33.649Z,2.45
2022-09-15T02:04:23.077Z,2.72
2022-09-15T02:07:04.072Z,2.70
2022-09-15T02:09:36.874Z,2.95
2022-09-15T02:12:20.447Z,3.13
2022-09-15T02:15:01.104Z,2.85
2022-09-15T02:17:31.286Z,3.28
2022-09-15T02:20:15.716Z,3.13
2022-09-15T02:22:49.040Z,2.70
2022-09-15T02:25:25.054Z,2.83
2022-09-15T02:27:55.297Z,2.83
2022-09-15T02:30:22.454Z,2.85
2022-09-15T02:32:56.198Z,2.85
2022-09-15T02:35:26.272Z,3.45
2022-09-15T02:37:54.504Z,3.10
2022-09-15T02:40:22.589Z,3.55
2022-09-15T02:42:58.488Z,3.20
2022-09-15T02:45:25.830Z,3.15
2022-09-15T02:47:52.645Z,3.35
2022-09-15T02:50:20.622Z,3.30
2022-09-15T02:52:47.328Z,3.63
2022-09-15T02:55:14.086Z,3.47
2022-09-15T02:57:40.755Z,3.10
2022-09-15T03:00:14.599Z,2.90
2022-09-15T03:02:43.803Z,2.70
2022-09-15T03:05:11.954Z,3.10
2022-09-15T03:07:38.833Z,2.80
2022-09-15T03:10:07.748Z,3.00
2022-09-15T03:12:42.836Z,3.03
2022-09-15T03:15:11.716Z,3.20
2022-09-15T03:17:41.687Z,2.60
2022-09-15T03:20:10.819Z,2.92
2022-09-15T03:22:37.508Z,2.80
2022-09-15T03:25:05.629Z,2.75
2022-09-15T03:27:33.876Z,2.95
2022-09-15T03:30:00.595Z,3.05
2022-09-15T03:32:27.602Z,3.00
2022-09-15T03:34:58.374Z,2.92
2022-09-15T03:37:26.145Z,3.22
2022-09-15T03:39:53.172Z,3.35
2022-09-15T03:42:20.403Z,2.65
2022-09-15T03:44:47.265Z,3.00
2022-09-15T03:47:13.986Z,3.00
2022-09-15T03:49:40.621Z,2.65
2022-09-15T03:52:07.432Z,2.90
2022-09-15T03:54:35.923Z,2.90
2022-09-15T03:57:03.402Z,2.92
2022-09-15T03:59:30.138Z,2.60
2022-09-15T04:01:57.096Z,2.88
2022-09-15T04:04:23.881Z,2.92
2022-09-15T04:06:50.504Z,2.65
2022-09-15T04:09:17.354Z,2.75
2022-09-15T04:11:43.999Z,2.53
2022-09-15T04:14:10.757Z,2.72
2022-09-15T04:16:37.542Z,3.10
2022-09-15T04:19:04.660Z,2.70
2022-09-15T04:21:32.094Z,2.72
2022-09-15T04:23:58.895Z,2.97
2022-09-15T04:26:25.576Z,2.92
2022-09-15T04:28:52.366Z,3.15
2022-09-15T04:31:19.977Z,2.65
2022-09-15T04:33:47.735Z,3.08
2022-09-15T04:36:17.574Z,3.25
2022-09-15T04:38:45.067Z,2.80
2022-09-15T04:41:12.454Z,3.30
2022-09-15T04:43:39.370Z,2.78
2022-09-15T04:46:06.544Z,3.40
2022-09-15T04:48:33.770Z,2.92
2022-09-15T04:51:06.070Z,3.53
2022-09-15T04:53:32.877Z,3.05
2022-09-15T04:56:07.140Z,3.25
2022-09-15T04:58:39.106Z,3.40
2022-09-15T05:01:15.270Z,3.30
2022-09-15T05:03:42.644Z,3.60
2022-09-15T05:06:13.086Z,3.72
2022-09-15T05:08:40.143Z,3.47
2022-09-15T05:11:11.969Z,3.35
2022-09-15T05:13:39.936Z,3.25
2022-09-15T05:16:13.201Z,3.28
2022-09-15T05:18:41.271Z,3.60
2022-09-15T05:21:09.685Z,3.83
2022-09-15T05:23:37.214Z,3.13
2022-09-15T05:26:07.234Z,3.60
2022-09-15T05:28:36.042Z,3.50
2022-09-15T05:31:09.187Z,3.40
2022-09-15T05:33:36.361Z,3.40
2022-09-15T05:36:03.444Z,3.63
2022-09-15T05:38:32.100Z,3.30
2022-09-15T05:41:03.983Z,3.15
2022-09-15T05:43:32.913Z,4.35
2022-09-15T05:46:00.099Z,4.00
2022-09-15T05:48:27.414Z,3.25
2022-09-15T05:50:56.405Z,3.50
2022-09-15T05:53:24.478Z,3.55
2022-09-15T05:56:01.667Z,3.30
2022-09-15T05:58:28.861Z,3.28
2022-09-15T06:00:55.750Z,3.10
2022-09-15T06:03:27.484Z,3.08
2022-09-15T06:06:02.800Z,2.80
2022-09-15T06:08:59.316Z,3.00
2022-09-15T06:11:29.922Z,3.10
2022-09-15T06:14:00.263Z,3.22
2022-09-15T06:16:27.169Z,2.97
2022-09-15T06:18:54.447Z,2.40
2022-09-15T06:21:26.462Z,2.42
2022-09-15T06:23:55.285Z,2.38
2022-09-15T06:26:23.254Z,2.80
2022-09-15T06:28:55.630Z,2.60
2022-09-15T06:31:22.973Z,2.17
2022-09-15T06:33:51.850Z,2.55
2022-09-15T06:36:21.171Z,2.08
2022-09-15T06:38:48.396Z,2.40
2022-09-15T06:41:15.937Z,2.15
2022-09-15T06:43:43.525Z,2.00
2022-09-15T06:46:14.480Z,1.90
2022-09-15T06:48:44.300Z,2.08
2022-09-15T06:51:15.640Z,1.75
2022-09-15T06:53:42.345Z,1.80
2022-09-15T06:56:14.853Z,1.90
2022-09-15T06:58:43.246Z,1.90
2022-09-15T07:01:19.216Z,2.10
2022-09-15T07:03:46.018Z,1.70
2022-09-15T07:06:12.824Z,1.70
2022-09-15T07:08:40.843Z,1.70
2022-09-15T07:11:08.925Z,1.80
2022-09-15T07:13:36.533Z,1.60
2022-09-15T07:16:05.766Z,1.90
2022-09-15T07:18:33.519Z,1.80
2022-09-15T07:21:03.247Z,2.00
2022-09-15T07:23:30.313Z,1.95
2022-09-15T07:26:07.329Z,2.20
2022-09-15T07:28:37.321Z,2.25
2022-09-15T07:31:06.238Z,2.00
2022-09-15T07:33:33.957Z,1.77
2022-09-15T07:36:02.967Z,2.00
2022-09-15T07:38:35.557Z,1.83
2022-09-15T07:41:04.178Z,2.10
2022-09-15T07:43:31.266Z,1.90
2022-09-15T07:45:58.898Z,1.80
2022-09-15T07:48:34.835Z,1.95
2022-09-15T07:51:01.768Z,1.70
2022-09-15T07:53:31.766Z,2.00
2022-09-15T07:55:58.449Z,1.60
2022-09-15T07:58:25.490Z,1.80
2022-09-15T08:00:52.519Z,1.60
2022-09-15T08:03:19.204Z,1.30
2022-09-15T08:05:46.211Z,1.90
2022-09-15T08:08:13.465Z,1.58
2022-09-15T08:10:41.826Z,1.80
2022-09-15T08:13:08.943Z,1.70
2022-09-15T08:15:37.672Z,1.40
2022-09-15T08:18:06.064Z,1.73
2022-09-15T08:20:33.691Z,1.65
2022-09-15T08:23:00.522Z,1.67
2022-09-15T08:25:27.236Z,1.48
2022-09-15T08:27:55.074Z,1.50
2022-09-15T08:30:22.318Z,2.20
2022-09-15T08:32:49.685Z,1.80
2022-09-15T08:35:17.290Z,1.40
2022-09-15T08:37:43.960Z,1.73
2022-09-15T08:40:35.878Z,1.70
2022-09-15T08:43:16.335Z,1.23
2022-09-15T08:46:03.085Z,1.38
2022-09-15T08:49:02.751Z,1.30
2022-09-15T08:51:42.179Z,1.42
2022-09-15T08:54:17.522Z,1.50
2022-09-15T08:56:44.750Z,1.40
2022-09-15T08:59:14.915Z,1.42
2022-09-15T09:02:09.817Z,1.60
2022-09-15T09:04:55.199Z,1.77
2022-09-15T09:07:59.903Z,1.45
2022-09-15T09:11:02.273Z,1.30
2022-09-15T09:13:41.383Z,1.38
2022-09-15T09:16:18.370Z,1.67
2022-09-15T09:19:01.998Z,1.23
2022-09-15T09:21:52.824Z,1.23
2022-09-15T09:24:34.521Z,1.08
2022-09-15T09:27:01.250Z,1.17
2022-09-15T09:29:40.112Z,1.50
2022-09-15T09:32:25.193Z,1.80
2022-09-15T09:35:03.204Z,1.20
2022-09-15T09:37:30.358Z,1.23
2022-09-15T09:39:57.165Z,1.20
2022-09-15T09:42:31.878Z,1.73
2022-09-15T09:44:58.602Z,1.10
2022-09-15T09:47:29.750Z,1.15
2022-09-15T09:49:56.617Z,1.60
2022-09-15T09:52:34.298Z,1.48
2022-09-15T09:55:21.192Z,1.40
2022-09-15T09:57:47.990Z,1.40
2022-09-15T10:00:36.504Z,1.83
2022-09-15T10:03:17.379Z,1.53
2022-09-15T10:05:45.449Z,1.20
2022-09-15T10:08:20.213Z,1.50
2022-09-15T10:10:55.957Z,1.67
2022-09-15T10:13:22.743Z,1.30
2022-09-15T10:15:59.329Z,1.60
2022-09-15T10:18:34.164Z,1.60
2022-09-15T10:21:03.753Z,1.40
2022-09-15T10:23:33.308Z,1.58
2022-09-15T10:28:42.598Z,1.60
2022-09-15T10:31:26.706Z,1.40
2022-09-15T10:33:53.537Z,1.77
2022-09-15T10:36:28.319Z,1.50
2022-09-15T10:39:10.468Z,1.50
2022-09-15T10:41:49.827Z,1.95
2022-09-15T10:44:38.942Z,1.70
2022-09-15T10:47:33.576Z,1.50
2022-09-15T10:50:14.563Z,1.58
2022-09-15T10:52:57.419Z,2.03
2022-09-15T10:55:51.116Z,1.98
2022-09-15T10:58:32.418Z,1.73
2022-09-15T11:01:17.759Z,1.75
2022-09-15T11:04:00.368Z,1.80
2022-09-15T11:06:50.378Z,2.30
2022-09-15T11:09:42.241Z,1.98
2022-09-15T11:12:28.417Z,2.78
2022-09-15T11:15:05.462Z,1.90
2022-09-15T11:18:19.294Z,1.90
2022-09-15T11:21:01.119Z,2.10
2022-09-15T11:23:27.901Z,2.10
2022-09-15T11:26:03.555Z,2.08
2022-09-15T11:28:45.862Z,1.83
2022-09-15T11:31:23.117Z,2.47
2022-09-15T11:33:58.229Z,2.70
2022-09-15T11:36:40.959Z,2.60
2022-09-15T11:39:16.230Z,2.38
2022-09-15T11:41:56.540Z,2.65
2022-09-15T11:44:31.462Z,2.78
2022-09-15T11:47:10.006Z,2.55
2022-09-15T11:49:36.901Z,2.90
2022-09-15T11:52:14.653Z,3.03
2022-09-15T11:54:51.180Z,2.47
2022-09-15T11:57:25.414Z,2.85
2022-09-15T11:59:58.900Z,2.97
2022-09-15T12:02:41.285Z,2.55
2022-09-15T12:05:11.139Z,2.83
2022-09-15T12:07:47.695Z,2.70
2022-09-15T12:10:35.400Z,2.40
2022-09-15T12:13:02.920Z,2.60
2022-09-15T12:15:29.926Z,2.33
2022-09-15T12:18:27.250Z,2.40
2022-09-15T12:21:13.633Z,2.50
2022-09-15T12:23:54.374Z,2.28
2022-09-15T12:26:23.447Z,2.03
2022-09-15T12:28:56.164Z,2.90
2022-09-15T12:31:23.434Z,2.47
2022-09-15T12:33:57.029Z,2.78
2022-09-15T12:36:52.498Z,2.72
2022-09-15T12:39:30.140Z,2.60
2022-09-15T12:41:59.858Z,2.65
2022-09-15T12:47:01.020Z,2.83
2022-09-15T12:49:35.448Z,2.80
2022-09-15T12:52:07.454Z,2.80
2022-09-15T12:54:38.826Z,2.80
2022-09-15T12:57:15.682Z,2.92
2022-09-15T12:59:42.618Z,2.70
2022-09-15T13:02:45.654Z,2.63
2022-09-15T13:05:13.066Z,2.92
2022-09-15T13:07:53.930Z,2.90
2022-09-15T13:10:35.752Z,2.90
2022-09-15T13:13:28.868Z,3.15
2022-09-15T13:16:00.493Z,2.90
2022-09-15T13:18:30.984Z,2.63
2022-09-15T13:21:05.371Z,2.72
2022-09-15T13:23:39.963Z,2.83
2022-09-15T13:26:12.277Z,3.03
2022-09-15T13:28:39.607Z,2.78
2022-09-15T13:31:20.154Z,2.75
2022-09-15T13:40:16.129Z,3.20
2022-09-15T13:43:05.147Z,3.85
2022-09-15T13:46:06.403Z,3.92
2022-09-15T13:48:44.202Z,3.92
2022-09-15T13:51:31.395Z,3.72
2022-09-15T13:54:15.254Z,2.80
2022-09-15T13:56:42.172Z,2.92
2022-09-15T13:59:18.593Z,2.95
2022-09-15T14:01:46.059Z,2.85
2022-09-15T14:04:37.318Z,2.85
2022-09-15T14:07:04.170Z,2.08
2022-09-15T14:09:33.360Z,2.15
2022-09-15T14:12:08.174Z,2.33
2022-09-15T14:14:40.356Z,1.88
2022-09-15T14:17:45.247Z,2.30
2022-09-15T14:20:25.639Z,2.00
2022-09-15T14:22:53.005Z,1.35
2022-09-15T14:25:20.905Z,2.13
2022-09-15T14:27:50.893Z,1.67
2022-09-15T14:30:30.028Z,1.73
2022-09-15T14:33:00.783Z,1.60
2022-09-15T14:35:35.773Z,1.80
2022-09-15T14:38:02.684Z,2.08
2022-09-15T14:40:40.053Z,1.73
2022-09-15T14:43:35.709Z,1.88
2022-09-15T14:46:14.877Z,1.58
2022-09-15T14:48:41.840Z,1.33
2022-09-15T14:51:21.597Z,1.50
2022-09-15T14:53:52.148Z,1.50
2022-09-15T14:56:22.927Z,1.25
2022-09-15T14:59:04.070Z,1.30
2022-09-15T15:01:46.467Z,1.50
2022-09-15T15:04:19.388Z,1.30
2022-09-15T15:06:48.891Z,1.40
2022-09-15T15:09:25.936Z,1.48
2022-09-15T15:11:57.780Z,1.38
2022-09-15T15:14:25.010Z,1.58
2022-09-15T15:16:56.779Z,1.60
2022-09-15T15:19:34.254Z,1.40
2022-09-15T15:22:15.985Z,1.30
2022-09-15T15:24:53.175Z,1.38
2022-09-15T15:27:35.134Z,1.00
2022-09-15T15:30:29.641Z,0.93
2022-09-15T15:32:59.840Z,0.90
2022-09-15T15:35:27.737Z,1.17
2022-09-15T15:38:02.471Z,0.80
2022-09-15T15:40:29.970Z,1.00
2022-09-15T15:43:02.157Z,0.90
2022-09-15T15:45:31.284Z,0.90
2022-09-15T15:47:58.386Z,0.93
2022-09-15T15:50:28.273Z,0.85
2022-09-15T15:52:55.273Z,0.95
2022-09-15T15:55:24.875Z,1.10
2022-09-15T15:57:54.286Z,1.00
2022-09-15T16:00:41.900Z,1.08
2022-09-15T16:03:08.840Z,0.85
2022-09-15T16:05:36.169Z,1.02
2022-09-15T16:08:06.808Z,1.20
2022-09-15T16:10:40.640Z,1.00
2022-09-15T16:13:09.728Z,0.90
2022-09-15T16:15:36.537Z,0.93
2022-09-15T16:18:04.215Z,0.80
2022-09-15T16:20:30.971Z,0.90
2022-09-15T16:22:57.716Z,0.93
2022-09-15T16:25:40.073Z,1.02
2022-09-15T16:28:06.829Z,1.00
2022-09-15T16:30:33.677Z,1.00
2022-09-15T16:33:00.472Z,0.88
2022-09-15T16:35:39.329Z,0.70
2022-09-15T16:38:07.360Z,0.90
2022-09-15T16:40:34.248Z,0.90
2022-09-15T16:43:00.979Z,0.80
2022-09-15T16:45:39.808Z,1.00
2022-09-15T16:48:08.762Z,0.80
2022-09-15T16:50:37.785Z,1.02
2022-09-15T16:53:09.438Z,0.90
2022-09-15T16:55:45.598Z,0.98
2022-09-15T16:58:13.952Z,0.90
2022-09-15T17:00:41.684Z,1.20
2022-09-15T17:03:09.106Z,0.70
2022-09-15T17:05:37.637Z,0.80
2022-09-15T17:08:05.797Z,1.10
2022-09-15T17:10:33.547Z,1.00
2022-09-15T17:13:03.193Z,0.98
2022-09-15T17:15:38.757Z,0.93
2022-09-15T17:18:10.074Z,1.02
2022-09-15T17:20:39.915Z,1.40
2022-09-15T17:23:27.700Z,1.20
2022-09-15T17:26:00.198Z,1.30
2022-09-15T17:28:30.015Z,1.15
2022-09-15T17:31:02.852Z,1.40
2022-09-15T17:33:31.265Z,1.15
2022-09-15T17:35:58.927Z,1.27
2022-09-15T17:38:25.980Z,1.30
2022-09-15T17:40:55.231Z,1.45
2022-09-15T17:43:25.645Z,1.13
2022-09-15T17:45:53.226Z,1.30
2022-09-15T17:48:20.833Z,1.20
2022-09-15T17:50:48.849Z,1.27
2022-09-15T17:53:24.088Z,1.30
2022-09-15T17:55:51.476Z,1.23
2022-09-15T17:58:18.645Z,1.42
2022-09-15T18:00:47.806Z,1.48
2022-09-15T18:03:35.515Z,1.38
2022-09-15T18:06:06.600Z,1.10
2022-09-15T18:08:34.194Z,1.30
2022-09-15T18:11:01.407Z,1.20
2022-09-15T18:13:29.987Z,1.55
2022-09-15T18:15:57.961Z,1.35
2022-09-15T18:18:27.274Z,1.55
2022-09-15T18:20:56.852Z,1.08
2022-09-15T18:23:26.021Z,1.73
2022-09-15T18:25:52.713Z,1.20
2022-09-15T18:28:20.189Z,1.23
2022-09-15T18:30:49.312Z,1.58
2022-09-15T18:33:19.830Z,1.30
2022-09-15T18:35:48.480Z,1.42
2022-09-15T18:38:16.430Z,1.50
2022-09-15T18:40:49.133Z,1.42
2022-09-15T18:43:17.000Z,1.73
2022-09-15T18:45:44.025Z,1.38
2022-09-15T18:48:13.057Z,1.90
2022-09-15T18:50:41.095Z,1.83
2022-09-15T18:53:07.855Z,2.10
2022-09-15T18:55:34.951Z,2.08
2022-09-15T18:58:02.398Z,1.63
2022-09-15T19:00:29.325Z,1.70
2022-09-15T19:03:00.644Z,1.90
2022-09-15T19:05:28.911Z,1.70
2022-09-15T19:07:56.117Z,1.70
2022-09-15T19:10:23.933Z,1.55
2022-09-15T19:12:50.927Z,1.67
2022-09-15T19:15:17.823Z,1.73
2022-09-15T19:17:45.032Z,1.70
2022-09-15T19:20:14.986Z,1.50
2022-09-15T19:22:42.650Z,2.00
2022-09-15T19:25:11.090Z,1.63
2022-09-15T19:27:39.565Z,1.83
2022-09-15T19:30:09.884Z,1.30
2022-09-15T19:32:38.310Z,1.48
2022-09-15T19:35:06.052Z,0.98
2022-09-15T19:37:37.200Z,1.00
2022-09-15T19:40:08.342Z,1.05
2022-09-15T19:42:36.377Z,0.90
2022-09-15T19:45:03.126Z,1.00
2022-09-15T19:47:29.923Z,0.98
2022-09-15T19:49:56.760Z,1.00
2022-09-15T19:52:23.466Z,0.82
2022-09-15T19:54:50.102Z,1.20
2022-09-15T19:57:16.851Z,1.10
2022-09-15T19:59:44.701Z,0.93
2022-09-15T20:02:12.047Z,1.00
2022-09-15T20:04:41.993Z,1.00
2022-09-15T20:07:08.677Z,1.58
2022-09-15T20:09:35.758Z,1.23
2022-09-15T20:12:03.468Z,0.95
2022-09-15T20:14:31.411Z,1.27
2022-09-15T20:17:00.941Z,1.40
2022-09-15T20:19:28.579Z,0.88
2022-09-15T20:21:55.362Z,1.10
2022-09-15T20:24:23.680Z,1.15
2022-09-15T20:26:50.921Z,1.15
2022-09-15T20:29:17.870Z,1.20
2022-09-15T20:31:44.773Z,1.15
2022-09-15T20:34:11.459Z,1.20
2022-09-15T20:36:39.369Z,1.25
2022-09-15T20:39:11.990Z,1.15
2022-09-15T20:41:40.092Z,1.33
2022-09-15T20:44:09.467Z,0.90
2022-09-15T20:46:37.105Z,1.17
2022-09-15T20:49:04.923Z,1.25
2022-09-15T20:51:33.606Z,1.30
2022-09-15T20:54:03.382Z,1.20
2022-09-15T20:58:59.226Z,1.33
2022-09-15T21:01:33.814Z,1.25
2022-09-15T21:04:00.926Z,1.17
2022-09-15T21:06:28.466Z,1.20
2022-09-15T21:08:56.795Z,1.35
2022-09-15T21:11:26.631Z,1.30
2022-09-15T21:16:23.118Z,1.77
2022-09-15T21:18:50.820Z,1.25
2022-09-15T21:21:22.990Z,1.27
2022-09-15T21:23:55.470Z,1.45
2022-09-15T21:26:25.087Z,1.33
2022-09-15T21:28:52.108Z,1.80
2022-09-15T21:31:24.369Z,1.30
2022-09-15T21:33:52.492Z,1.50
2022-09-15T21:36:24.601Z,1.58
2022-09-15T21:38:54.738Z,2.17
2022-09-15T21:41:23.588Z,2.30
2022-09-15T21:43:55.579Z,2.13
2022-09-15T21:46:25.911Z,3.13
2022-09-15T21:48:53.015Z,2.38
2022-09-15T21:51:24.627Z,1.98
2022-09-15T21:53:56.105Z,1.67
2022-09-15T21:56:24.350Z,1.95
2022-09-15T21:58:51.418Z,1.60
2022-09-15T22:01:28.105Z,1.92
2022-09-15T22:04:00.630Z,1.90
2022-09-15T22:06:40.519Z,1.55
2022-09-15T22:09:10.817Z,1.35
2022-09-15T22:11:37.542Z,1.40
2022-09-15T22:14:08.103Z,1.50
2022-09-15T22:16:36.777Z,1.55
2022-09-15T22:19:05.410Z,1.55
2022-09-15T22:21:32.675Z,1.30
2022-09-15T22:23:59.647Z,1.50
2022-09-15T22:26:28.962Z,1.45
2022-09-15T22:28:56.591Z,1.65
2022-09-15T22:31:24.547Z,2.05
2022-09-15T22:33:52.126Z,1.58
2022-09-15T22:36:28.852Z,1.50
2022-09-15T22:39:02.826Z,1.40
2022-09-15T22:41:30.491Z,1.50
2022-09-15T22:43:57.227Z,1.45
2022-09-15T22:46:23.968Z,1.88
2022-09-15T22:48:50.620Z,1.73
2022-09-15T22:51:17.333Z,1.80
2022-09-15T22:53:44.143Z,1.77
2022-09-15T22:56:21.579Z,1.60
2022-09-15T22:58:49.619Z,2.08
2022-09-15T23:01:22.267Z,1.90
2022-09-15T23:03:53.864Z,2.38
2022-09-15T23:06:21.815Z,2.25
2022-09-15T23:08:53.126Z,2.70
2022-09-15T23:11:20.889Z,2.97
2022-09-15T23:13:48.297Z,2.53
2022-09-15T23:16:15.041Z,2.50
2022-09-15T23:18:41.791Z,2.80
2022-09-15T23:21:10.430Z,2.63
2022-09-15T23:23:39.284Z,3.00
2022-09-15T23:26:08.186Z,2.80
2022-09-15T23:28:35.072Z,3.30
2022-09-15T23:31:02.254Z,3.08
2022-09-15T23:33:31.326Z,3.42
2022-09-15T23:36:02.581Z,2.90
2022-09-15T23:38:29.646Z,3.28
2022-09-15T23:40:56.804Z,3.10
2022-09-15T23:43:23.582Z,3.17
2022-09-15T23:45:51.301Z,2.88
2022-09-15T23:48:18.091Z,3.10
2022-09-15T23:50:45.007Z,2.78
2022-09-15T23:53:11.914Z,2.60
2022-09-15T23:55:38.816Z,2.60
2022-09-15T23:58:05.933Z,2.17
